createdAt,value
2023-04-11T00:01:56.771Z,100566.53
2023-04-11T00:04:25.692Z,100561.88
2023-04-11T00:06:53.767Z,100556.03
2023-04-11T00:09:22.506Z,100559.44
2023-04-11T00:11:50.725Z,100555.47
2023-04-11T00:14:18.996Z,100540.97
2023-04-11T00:16:49.829Z,100540.28
2023-04-11T00:19:23.365Z,100535.59
2023-04-11T00:21:52.279Z,100535.06
2023-04-11T00:24:20.319Z,100537.94
2023-04-11T00:26:48.578Z,100531.84
2023-04-11T00:29:16.784Z,100529.66
2023-04-11T00:31:45.533Z,100533.16
2023-04-11T00:34:14.004Z,100531.00
2023-04-11T00:36:46.328Z,100539.97
2023-04-11T00:39:14.574Z,100526.03
2023-04-11T00:41:42.568Z,100533.50
2023-04-11T00:44:11.675Z,100542.28
2023-04-11T00:46:43.186Z,100531.50
2023-04-11T00:49:14.079Z,100521.56
2023-04-11T00:51:42.217Z,100521.56
2023-04-11T00:54:12.421Z,100512.16
2023-04-11T00:56:40.909Z,100515.03
2023-04-11T00:59:11.922Z,100510.00
2023-04-11T01:01:40.080Z,100508.88
2023-04-11T01:04:08.527Z,100504.03
2023-04-11T01:06:37.446Z,100509.59
2023-04-11T01:09:05.945Z,100500.38
2023-04-11T01:11:35.818Z,100494.19
2023-04-11T01:14:04.301Z,100493.13
2023-04-11T01:16:32.248Z,100491.09
2023-04-11T01:19:02.760Z,100486.25
2023-04-11T01:21:33.600Z,100484.16
2023-04-11T01:24:03.980Z,100490.81
2023-04-11T01:26:32.245Z,100483.28
2023-04-11T01:29:00.235Z,100484.03
2023-04-11T01:31:28.277Z,100473.88
2023-04-11T01:33:56.408Z,100472.03
2023-04-11T01:36:24.975Z,100470.00
2023-04-11T01:38:53.097Z,100478.63
2023-04-11T01:41:23.530Z,100480.13
2023-04-11T01:43:54.709Z,100477.13
2023-04-11T01:46:23.475Z,100483.22
2023-04-11T01:48:52.045Z,100484.22
2023-04-11T01:51:20.138Z,100473.88
2023-04-11T01:53:48.518Z,100468.91
2023-04-11T01:56:16.710Z,100479.09
2023-04-11T01:58:46.355Z,100481.09
2023-04-11T02:01:14.395Z,100476.63
2023-04-11T02:03:42.506Z,100477.06
2023-04-11T02:06:11.098Z,100468.72
2023-04-11T02:08:40.732Z,100467.44
2023-04-11T02:11:09.754Z,100468.97
2023-04-11T02:13:38.050Z,100476.69
2023-04-11T02:16:11.747Z,100473.63
2023-04-11T02:18:40.364Z,100457.16
2023-04-11T02:21:08.524Z,100466.81
2023-04-11T02:23:36.971Z,100463.47
2023-04-11T02:26:05.458Z,100466.47
2023-04-11T02:28:35.959Z,100457.16
2023-04-11T02:31:04.789Z,100451.09
2023-04-11T02:33:34.581Z,100446.09
2023-04-11T02:36:02.682Z,100434.63
2023-04-11T02:38:30.987Z,100430.59
2023-04-11T02:40:59.555Z,100425.44
2023-04-11T02:43:27.840Z,100426.56
2023-04-11T02:46:09.407Z,100430.03
2023-04-11T02:48:41.566Z,100422.75
2023-04-11T02:51:09.856Z,100408.66
2023-04-11T02:53:37.898Z,100408.44
2023-04-11T02:56:07.548Z,100412.00
2023-04-11T02:58:39.066Z,100420.66
2023-04-11T03:01:12.119Z,100414.44
2023-04-11T03:03:41.684Z,100423.44
2023-04-11T03:06:13.605Z,100417.84
2023-04-11T03:08:41.636Z,100418.84
2023-04-11T03:11:09.559Z,100421.16
2023-04-11T03:13:37.718Z,100427.06
2023-04-11T03:16:06.989Z,100404.19
2023-04-11T03:18:35.155Z,100403.13
2023-04-11T03:21:04.801Z,100389.59
2023-04-11T03:23:33.187Z,100397.78
2023-04-11T03:26:01.436Z,100378.56
2023-04-11T03:28:29.730Z,100375.91
2023-04-11T03:30:57.856Z,100408.03
2023-04-11T03:33:27.094Z,100400.22
2023-04-11T03:35:55.530Z,100411.75
2023-04-11T03:38:25.166Z,100410.03
2023-04-11T03:40:53.432Z,100419.84
2023-04-11T03:43:21.547Z,100423.38
2023-04-11T03:45:51.773Z,100418.34
2023-04-11T03:48:20.450Z,100428.28
2023-04-11T03:50:48.759Z,100431.97
2023-04-11T03:53:16.852Z,100429.72
2023-04-11T03:55:46.428Z,100432.44
2023-04-11T03:58:14.376Z,100433.50
2023-04-11T04:00:42.878Z,100428.16
2023-04-11T04:03:11.147Z,100430.81
2023-04-11T04:05:39.501Z,100435.13
2023-04-11T04:08:08.184Z,100431.06
2023-04-11T04:10:36.274Z,100436.41
2023-04-11T04:13:06.387Z,100423.81
2023-04-11T04:15:34.433Z,100423.97
2023-04-11T04:18:02.802Z,100431.78
2023-04-11T04:20:30.783Z,100436.63
2023-04-11T04:23:00.300Z,100443.59
2023-04-11T04:25:28.676Z,100443.75
2023-04-11T04:27:58.264Z,100444.25
2023-04-11T04:30:28.904Z,100442.63
2023-04-11T04:32:59.259Z,100448.19
2023-04-11T04:35:27.467Z,100442.34
2023-04-11T04:37:55.716Z,100448.78
2023-04-11T04:40:23.678Z,100448.44
2023-04-11T04:42:58.461Z,100446.84
2023-04-11T04:45:28.282Z,100449.50
2023-04-11T04:47:56.375Z,100455.66
2023-04-11T04:50:24.407Z,100456.31
2023-04-11T04:52:52.935Z,100453.69
2023-04-11T04:55:20.847Z,100460.09
2023-04-11T04:57:48.785Z,100461.91
2023-04-11T05:00:17.313Z,100466.75
2023-04-11T05:02:47.868Z,100474.16
2023-04-11T05:05:16.369Z,100456.69
2023-04-11T05:07:45.300Z,100451.31
2023-04-11T05:10:13.353Z,100452.28
2023-04-11T05:12:41.498Z,100465.81
2023-04-11T05:15:11.830Z,100456.19
2023-04-11T05:17:39.873Z,100455.09
2023-04-11T05:20:10.445Z,100466.69
2023-04-11T05:22:38.694Z,100459.72
2023-04-11T05:25:09.243Z,100470.06
2023-04-11T05:27:37.337Z,100475.44
2023-04-11T05:30:09.778Z,100466.72
2023-04-11T05:32:37.803Z,100474.31
2023-04-11T05:35:06.340Z,100481.16
2023-04-11T05:37:37.323Z,100469.47
2023-04-11T05:40:10.196Z,100477.56
2023-04-11T05:42:38.371Z,100475.13
2023-04-11T05:45:07.322Z,100471.97
2023-04-11T05:47:35.625Z,100473.88
2023-04-11T05:50:03.516Z,100488.25
2023-04-11T05:52:31.596Z,100484.63
2023-04-11T05:55:01.573Z,100479.56
2023-04-11T05:57:29.428Z,100474.63
2023-04-11T05:59:57.782Z,100478.75
2023-04-11T06:02:26.438Z,100486.00
2023-04-11T06:04:54.610Z,100481.72
2023-04-11T06:07:23.651Z,100479.38
2023-04-11T06:09:51.703Z,100476.81
2023-04-11T06:12:21.201Z,100487.63
2023-04-11T06:14:49.320Z,100481.00
2023-04-11T06:17:17.417Z,100493.06
2023-04-11T06:19:45.412Z,100486.19
2023-04-11T06:22:13.346Z,100486.34
2023-04-11T06:24:42.119Z,100489.34
2023-04-11T06:27:10.916Z,100484.53
2023-04-11T06:29:41.244Z,100489.50
2023-04-11T06:32:09.548Z,100485.22
2023-04-11T06:34:37.478Z,100485.81
2023-04-11T06:37:05.928Z,100486.03
2023-04-11T06:39:34.527Z,100482.06
2023-04-11T06:42:02.639Z,100486.22
2023-04-11T06:44:30.764Z,100487.22
2023-04-11T06:47:00.222Z,100492.91
2023-04-11T06:49:29.270Z,100494.53
2023-04-11T06:51:57.293Z,100484.66
2023-04-11T06:54:25.322Z,100492.38
2023-04-11T06:56:53.554Z,100494.94
2023-04-11T06:59:22.308Z,100500.91
2023-04-11T07:01:52.078Z,100498.78
2023-04-11T07:04:22.142Z,100503.38
2023-04-11T07:06:50.093Z,100511.31
2023-04-11T07:09:18.094Z,100508.94
2023-04-11T07:11:46.572Z,100513.13
2023-04-11T07:14:15.053Z,100518.59
2023-04-11T07:16:43.597Z,100525.19
2023-04-11T07:19:11.624Z,100525.19
2023-04-11T07:21:41.081Z,100525.63
2023-04-11T07:24:10.772Z,100537.34
2023-04-11T07:26:42.272Z,100535.31
2023-04-11T07:29:13.060Z,100552.91
2023-04-11T07:31:45.608Z,100553.00
2023-04-11T07:34:13.564Z,100552.34
2023-04-11T07:36:43.052Z,100550.22
2023-04-11T07:39:13.733Z,100563.66
2023-04-11T07:41:41.696Z,100559.03
2023-04-11T07:44:09.802Z,100556.72
2023-04-11T07:46:38.329Z,100564.25
2023-04-11T07:49:06.468Z,100565.00
2023-04-11T07:51:34.304Z,100574.16
2023-04-11T07:54:04.010Z,100576.59
2023-04-11T07:56:31.860Z,100589.16
2023-04-11T07:59:01.368Z,100589.56
2023-04-11T08:01:29.613Z,100584.22
2023-04-11T08:03:58.260Z,100581.72
2023-04-11T08:06:26.531Z,100593.81
2023-04-11T08:08:54.605Z,100589.03
2023-04-11T08:11:23.843Z,100600.44
2023-04-11T08:13:51.847Z,100591.34
2023-04-11T08:16:19.883Z,100595.72
2023-04-11T08:18:48.052Z,100593.81
2023-04-11T08:21:15.941Z,100601.69
2023-04-11T08:23:43.876Z,100602.78
2023-04-11T08:26:13.266Z,100607.53
2023-04-11T08:28:43.570Z,100612.84
2023-04-11T08:31:13.199Z,100608.97
2023-04-11T08:33:41.600Z,100615.34
2023-04-11T08:36:11.067Z,100610.56
2023-04-11T08:38:39.649Z,100602.19
2023-04-11T08:41:07.992Z,100606.44
2023-04-11T08:43:36.494Z,100610.88
2023-04-11T08:46:07.849Z,100619.28
2023-04-11T08:48:36.259Z,100610.53
2023-04-11T08:51:04.199Z,100618.25
2023-04-11T08:53:33.201Z,100609.75
2023-04-11T08:56:01.056Z,100615.56
2023-04-11T08:58:29.753Z,100605.34
2023-04-11T09:00:57.715Z,100615.50
2023-04-11T09:03:27.298Z,100608.25
2023-04-11T09:05:59.061Z,100619.38
2023-04-11T09:08:39.533Z,100617.03
2023-04-11T09:11:07.735Z,100607.13
2023-04-11T09:13:35.839Z,100614.56
2023-04-11T09:16:09.284Z,100613.19
2023-04-11T09:18:40.169Z,100602.63
2023-04-11T09:21:10.207Z,100611.00
2023-04-11T09:23:39.439Z,100602.09
2023-04-11T09:26:08.920Z,100606.81
2023-04-11T09:28:43.100Z,100601.13
2023-04-11T09:31:13.274Z,100606.59
2023-04-11T09:33:54.848Z,100603.91
2023-04-11T09:36:24.982Z,100607.97
2023-04-11T09:38:53.954Z,100604.66
2023-04-11T09:41:32.168Z,100597.63
2023-04-11T09:44:00.757Z,100605.97
2023-04-11T09:46:28.805Z,100599.88
2023-04-11T09:48:58.331Z,100601.75
2023-04-11T09:53:58.917Z,100606.53
2023-04-11T09:56:28.858Z,100596.78
2023-04-11T09:58:59.727Z,100592.56
2023-04-11T10:01:28.225Z,100591.78
2023-04-11T10:03:58.699Z,100589.41
2023-04-11T10:06:34.106Z,100581.91
2023-04-11T10:09:11.180Z,100600.34
2023-04-11T10:11:42.816Z,100595.28
2023-04-11T10:14:11.314Z,100606.91
2023-04-11T10:17:12.638Z,100595.25
2023-04-11T10:19:43.675Z,100599.44
2023-04-11T10:22:12.655Z,100597.97
2023-04-11T10:24:40.638Z,100615.25
2023-04-11T10:27:08.822Z,100617.91
2023-04-11T10:29:51.584Z,100632.81
2023-04-11T10:32:26.558Z,100636.47
2023-04-11T10:35:24.914Z,100636.47
2023-04-11T10:37:52.918Z,100632.88
2023-04-11T10:40:21.612Z,100642.63
2023-04-11T10:42:49.734Z,100635.47
2023-04-11T10:45:19.341Z,100646.25
2023-04-11T10:48:07.556Z,100650.59
2023-04-11T10:50:40.942Z,100657.47
2023-04-11T10:53:14.377Z,100658.59
2023-04-11T10:55:48.142Z,100668.47
2023-04-11T10:58:19.719Z,100666.34
2023-04-11T11:01:26.162Z,100656.94
2023-04-11T11:04:03.778Z,100673.19
2023-04-11T11:06:46.150Z,100684.09
2023-04-11T11:09:23.398Z,100691.03
2023-04-11T11:12:07.164Z,100684.81
2023-04-11T11:14:35.725Z,100692.97
2023-04-11T11:17:04.195Z,100694.69
2023-04-11T11:19:32.997Z,100701.22
2023-04-11T11:22:04.053Z,100705.38
2023-04-11T11:24:32.503Z,100714.78
2023-04-11T11:27:00.953Z,100715.44
2023-04-11T11:29:34.019Z,100715.75
2023-04-11T11:32:04.066Z,100716.09
2023-04-11T11:34:33.694Z,100727.44
2023-04-11T11:37:05.473Z,100723.06
2023-04-11T11:39:34.147Z,100728.94
2023-04-11T11:42:03.426Z,100737.94
2023-04-11T11:44:32.813Z,100738.34
2023-04-11T11:47:04.755Z,100738.56
2023-04-11T11:49:46.784Z,100746.06
2023-04-11T11:52:32.686Z,100752.56
2023-04-11T11:55:01.169Z,100750.50
2023-04-11T11:57:29.334Z,100757.22
2023-04-11T11:59:58.271Z,100770.78
2023-04-11T12:02:28.152Z,100780.41
2023-04-11T12:05:00.109Z,100784.19
2023-04-11T12:07:33.636Z,100788.88
2023-04-11T12:10:02.298Z,100785.41
2023-04-11T12:12:36.340Z,100789.16
2023-04-11T12:15:04.749Z,100794.34
2023-04-11T12:17:37.849Z,100798.81
2023-04-11T12:20:08.331Z,100790.94
2023-04-11T12:22:38.163Z,100804.50
2023-04-11T12:25:07.904Z,100798.59
2023-04-11T12:27:37.020Z,100805.66
2023-04-11T12:30:05.873Z,100801.63
2023-04-11T12:32:34.963Z,100813.59
2023-04-11T12:35:03.210Z,100812.84
2023-04-11T12:37:33.058Z,100810.47
2023-04-11T12:40:06.847Z,100817.34
2023-04-11T12:42:36.834Z,100827.19
2023-04-11T12:45:13.955Z,100832.56
2023-04-11T12:47:42.442Z,100836.47
2023-04-11T12:50:11.400Z,100833.31
2023-04-11T12:52:39.712Z,100834.59
2023-04-11T12:55:10.347Z,100839.13
2023-04-11T12:57:38.343Z,100839.94
2023-04-11T13:00:08.271Z,100843.03
2023-04-11T13:02:42.926Z,100845.09
2023-04-11T13:05:14.222Z,100842.69
2023-04-11T13:07:43.083Z,100854.38
2023-04-11T13:10:13.689Z,100845.28
2023-04-11T13:12:44.754Z,100853.72
2023-04-11T13:15:14.263Z,100860.28
2023-04-11T13:17:42.511Z,100858.97
2023-04-11T13:20:11.901Z,100850.31
2023-04-11T13:22:41.078Z,100866.47
2023-04-11T13:25:10.287Z,100868.84
2023-04-11T13:27:40.784Z,100866.78
2023-04-11T13:30:10.750Z,100874.94
2023-04-11T13:32:38.955Z,100865.94
2023-04-11T13:35:08.329Z,100874.38
2023-04-11T13:37:36.467Z,100884.09
2023-04-11T13:40:08.544Z,100879.84
2023-04-11T13:42:36.666Z,100881.59
2023-04-11T13:45:07.155Z,100891.50
2023-04-11T13:47:38.175Z,100900.13
2023-04-11T13:50:16.228Z,100898.75
2023-04-11T13:52:44.329Z,100907.91
2023-04-11T13:55:12.405Z,100914.41
2023-04-11T13:57:40.491Z,100917.63
2023-04-11T14:00:12.589Z,100931.00
2023-04-11T14:02:41.593Z,100933.22
2023-04-11T14:05:10.737Z,100941.63
2023-04-11T14:07:39.332Z,100956.88
2023-04-11T14:10:08.407Z,100949.19
2023-04-11T14:12:36.712Z,100947.16
2023-04-11T14:15:05.996Z,100943.13
2023-04-11T14:17:35.489Z,100953.34
2023-04-11T14:20:03.788Z,100947.94
2023-04-11T14:22:32.439Z,100954.97
2023-04-11T14:25:00.396Z,100941.75
2023-04-11T14:27:28.271Z,100952.75
2023-04-11T14:29:56.725Z,100954.28
2023-04-11T14:32:24.828Z,100960.28
2023-04-11T14:34:54.908Z,100957.28
2023-04-11T14:37:23.100Z,100959.16
2023-04-11T14:39:51.231Z,100962.50
2023-04-11T14:42:19.255Z,100968.78
2023-04-11T14:44:47.230Z,100968.09
2023-04-11T14:47:15.418Z,100968.78
2023-04-11T14:49:43.333Z,100972.78
2023-04-11T14:52:12.971Z,100979.75
2023-04-11T14:54:40.849Z,100973.97
2023-04-11T14:57:09.668Z,100977.59
2023-04-11T14:59:37.769Z,100976.44
2023-04-11T15:02:06.218Z,100975.41
2023-04-11T15:04:34.419Z,100973.19
2023-04-11T15:07:02.826Z,100979.59
2023-04-11T15:09:32.558Z,100987.09
2023-04-11T15:12:02.312Z,100994.94
2023-04-11T15:14:30.312Z,100993.69
2023-04-11T15:16:58.302Z,101001.34
2023-04-11T15:19:26.454Z,101008.88
2023-04-11T15:21:54.393Z,101004.56
2023-04-11T15:24:22.530Z,101008.41
2023-04-11T15:26:51.954Z,101012.09
2023-04-11T15:29:19.895Z,101009.44
2023-04-11T15:31:47.905Z,101005.00
2023-04-11T15:34:16.940Z,101007.84
2023-04-11T15:36:45.356Z,101011.00
2023-04-11T15:39:13.534Z,101008.88
2023-04-11T15:41:41.678Z,101012.06
2023-04-11T15:44:11.010Z,101013.53
2023-04-11T15:46:39.566Z,101014.00
2023-04-11T15:49:07.779Z,101019.19
2023-04-11T15:51:35.697Z,101014.56
2023-04-11T15:54:04.873Z,101019.84
2023-04-11T15:56:33.417Z,101016.97
2023-04-11T15:59:01.316Z,101022.47
2023-04-11T16:01:31.008Z,101022.91
2023-04-11T16:03:59.667Z,101015.63
2023-04-11T16:06:28.022Z,101017.66
2023-04-11T16:08:56.144Z,101017.59
2023-04-11T16:11:24.080Z,101038.81
2023-04-11T16:13:52.167Z,101029.72
2023-04-11T16:16:20.095Z,101028.69
2023-04-11T16:18:49.786Z,101026.03
2023-04-11T16:21:18.002Z,101030.31
2023-04-11T16:23:50.329Z,101017.44
2023-04-11T16:26:18.505Z,101017.09
2023-04-11T16:28:46.460Z,101018.09
2023-04-11T16:31:19.362Z,101026.56
2023-04-11T16:33:47.384Z,101030.00
2023-04-11T16:36:17.157Z,101036.09
2023-04-11T16:38:45.348Z,101010.97
2023-04-11T16:41:13.237Z,101035.22
2023-04-11T16:43:41.763Z,101041.78
2023-04-11T16:46:16.614Z,101042.56
2023-04-11T16:48:45.123Z,101040.22
2023-04-11T16:51:13.673Z,101037.13
2023-04-11T16:53:43.038Z,101048.13
2023-04-11T16:56:12.213Z,101056.22
2023-04-11T16:58:40.292Z,101063.16
2023-04-11T17:01:08.857Z,101059.72
2023-04-11T17:03:36.994Z,101053.88
2023-04-11T17:06:15.122Z,101053.94
2023-04-11T17:08:45.544Z,101056.25
2023-04-11T17:11:13.726Z,101059.41
2023-04-11T17:13:42.206Z,101063.03
2023-04-11T17:16:11.146Z,101074.72
2023-04-11T17:18:39.505Z,101058.44
2023-04-11T17:21:08.152Z,101055.44
2023-04-11T17:23:56.755Z,101066.88
2023-04-11T17:26:26.111Z,101074.28
2023-04-11T17:28:54.274Z,101073.59
2023-04-11T17:31:22.349Z,101067.66
2023-04-11T17:33:50.505Z,101077.06
2023-04-11T17:36:18.436Z,101077.56
2023-04-11T17:38:48.371Z,101071.38
2023-04-11T17:41:16.924Z,101074.22
2023-04-11T17:43:46.422Z,101082.03
2023-04-11T17:46:14.665Z,101081.97
2023-04-11T17:48:42.734Z,101077.50
2023-04-11T17:51:10.674Z,101081.00
2023-04-11T17:53:38.665Z,101079.56
2023-04-11T17:56:07.828Z,101078.09
2023-04-11T17:58:36.048Z,101083.94
2023-04-11T18:01:11.203Z,101078.81
2023-04-11T18:03:40.255Z,101080.78
2023-04-11T18:06:09.044Z,101089.88
2023-04-11T18:08:50.440Z,101091.69
2023-04-11T18:11:19.439Z,101094.69
2023-04-11T18:13:50.041Z,101085.44
2023-04-11T18:16:20.074Z,101096.75
2023-04-11T18:18:49.317Z,101099.31
2023-04-11T18:21:17.733Z,101094.78
2023-04-11T18:23:45.944Z,101090.63
2023-04-11T18:26:13.926Z,101097.16
2023-04-11T18:28:41.953Z,101106.34
2023-04-11T18:31:10.975Z,101102.88
2023-04-11T18:33:59.285Z,101102.09
2023-04-11T18:36:27.809Z,101098.66
2023-04-11T18:38:59.410Z,101100.31
2023-04-11T18:41:27.689Z,101105.97
2023-04-11T18:43:59.708Z,101115.06
2023-04-11T18:46:29.115Z,101121.34
2023-04-11T18:48:59.110Z,101124.06
2023-04-11T18:51:30.999Z,101120.00
2023-04-11T18:53:59.317Z,101125.78
2023-04-11T18:56:27.648Z,101111.22
2023-04-11T18:59:04.676Z,101124.19
2023-04-11T19:01:36.437Z,101121.09
2023-04-11T19:04:06.530Z,101114.72
2023-04-11T19:06:35.513Z,101120.00
2023-04-11T19:09:14.165Z,101121.72
2023-04-11T19:11:42.835Z,101119.13
2023-04-11T19:14:11.311Z,101112.94
2023-04-11T19:16:39.336Z,101117.41
2023-04-11T19:19:08.844Z,101113.19
2023-04-11T19:21:37.775Z,101112.31
2023-04-11T19:24:15.095Z,101117.66
2023-04-11T19:26:44.129Z,101113.50
2023-04-11T19:29:12.415Z,101111.16
2023-04-11T19:31:40.897Z,101102.53
2023-04-11T19:34:10.883Z,101097.22
2023-04-11T19:36:39.180Z,101106.13
2023-04-11T19:39:08.408Z,101106.81
2023-04-11T19:41:36.369Z,101102.63
2023-04-11T19:44:04.939Z,101100.81
2023-04-11T19:46:33.182Z,101104.25
2023-04-11T19:49:01.458Z,101109.13
2023-04-11T19:51:31.110Z,101099.56
2023-04-11T19:53:59.439Z,101093.38
2023-04-11T19:56:27.668Z,101093.28
2023-04-11T19:58:59.066Z,101094.25
2023-04-11T20:01:28.470Z,101095.34
2023-04-11T20:03:57.581Z,101090.00
2023-04-11T20:06:27.285Z,101095.34
2023-04-11T20:08:59.075Z,101088.44
2023-04-11T20:11:29.121Z,101091.19
2023-04-11T20:13:57.560Z,101088.69
2023-04-11T20:16:26.461Z,101090.47
2023-04-11T20:18:55.616Z,101090.41
2023-04-11T20:21:23.660Z,101090.31
2023-04-11T20:23:51.765Z,101088.44
2023-04-11T20:26:21.088Z,101079.75
2023-04-11T20:28:49.752Z,101088.38
2023-04-11T20:31:17.664Z,101086.88
2023-04-11T20:33:46.155Z,101085.22
2023-04-11T20:36:15.663Z,101085.59
2023-04-11T20:38:43.701Z,101083.56
2023-04-11T20:41:12.209Z,101088.06
2023-04-11T20:43:42.901Z,101085.63
2023-04-11T20:46:13.652Z,101092.69
2023-04-11T20:48:43.425Z,101089.78
2023-04-11T20:51:11.354Z,101092.22
2023-04-11T20:53:39.319Z,101081.97
2023-04-11T20:56:07.998Z,101083.84
2023-04-11T20:58:35.911Z,101075.16
2023-04-11T21:01:05.488Z,101077.81
2023-04-11T21:03:37.301Z,101077.66
2023-04-11T21:06:07.577Z,101082.25
2023-04-11T21:08:37.898Z,101067.56
2023-04-11T21:11:06.369Z,101072.88
2023-04-11T21:13:34.388Z,101077.03
2023-04-11T21:16:02.351Z,101077.69
2023-04-11T21:18:34.383Z,101079.88
2023-04-11T21:21:02.639Z,101074.22
2023-04-11T21:23:30.442Z,101072.00
2023-04-11T21:25:58.415Z,101070.41
2023-04-11T21:28:26.502Z,101070.41
2023-04-11T21:30:55.409Z,101061.38
2023-04-11T21:33:23.650Z,101059.16
2023-04-11T21:35:57.080Z,101056.16
2023-04-11T21:38:25.089Z,101052.44
2023-04-11T21:40:54.162Z,101043.75
2023-04-11T21:43:22.026Z,101047.38
2023-04-11T21:45:49.985Z,101046.47
2023-04-11T21:48:17.867Z,101040.84
2023-04-11T21:50:46.465Z,101042.53
2023-04-11T21:53:15.693Z,101041.72
2023-04-11T21:55:47.354Z,101036.41
2023-04-11T21:58:27.918Z,101040.38
2023-04-11T22:00:57.505Z,101035.50
2023-04-11T22:03:26.719Z,101037.28
2023-04-11T22:05:54.839Z,101038.34
2023-04-11T22:08:29.300Z,101035.94
2023-04-11T22:10:57.619Z,101042.38
2023-04-11T22:13:26.353Z,101040.00
2023-04-11T22:15:58.790Z,101038.47
2023-04-11T22:18:27.176Z,101037.22
2023-04-11T22:20:55.325Z,101037.03
2023-04-11T22:23:26.530Z,101038.88
2023-04-11T22:25:57.769Z,101029.47
2023-04-11T22:28:26.339Z,101023.50
2023-04-11T22:30:54.598Z,101019.56
2023-04-11T22:33:23.113Z,101012.03
2023-04-11T22:35:51.196Z,101008.72
2023-04-11T22:38:19.937Z,101014.97
2023-04-11T22:40:49.469Z,101004.72
2023-04-11T22:43:17.798Z,101009.44
2023-04-11T22:45:46.888Z,101016.91
2023-04-11T22:48:15.078Z,101019.47
2023-04-11T22:50:43.708Z,101020.75
2023-04-11T22:53:13.940Z,101016.63
2023-04-11T22:55:41.929Z,101013.34
2023-04-11T22:58:12.037Z,101010.50
2023-04-11T23:00:39.952Z,101012.91
2023-04-11T23:03:08.433Z,101001.06
2023-04-11T23:05:39.699Z,100998.28
2023-04-11T23:08:08.149Z,101000.06
2023-04-11T23:10:36.086Z,100996.50
2023-04-11T23:13:04.200Z,100997.50
2023-04-11T23:15:34.070Z,100990.41
2023-04-11T23:18:02.120Z,100995.38
2023-04-11T23:20:30.430Z,100991.63
2023-04-11T23:22:58.454Z,100989.75
2023-04-11T23:25:26.835Z,100983.63
2023-04-11T23:27:54.998Z,100987.34
2023-04-11T23:30:23.694Z,100984.59
2023-04-11T23:32:53.397Z,100987.69
2023-04-11T23:35:22.247Z,100981.44
2023-04-11T23:37:52.977Z,100985.59
2023-04-11T23:40:21.438Z,100969.84
2023-04-11T23:42:50.168Z,100966.13
2023-04-11T23:45:22.349Z,100964.25
2023-04-11T23:47:50.515Z,100951.91
2023-04-11T23:50:20.613Z,100951.19
2023-04-11T23:52:49.207Z,100952.25
2023-04-11T23:55:17.264Z,100953.28
2023-04-11T23:57:45.306Z,100943.72
